Time;durP1;ratioP1;P1;durP2;ratioP2;P2;SDS_P1;SDS_P2;PMS_P1;PMS_P2;Temp;Humidity;BMP_temperature;BMP_pressure;BME280_temperature;BME280_humidity;BME280_pressure;Samples;Min_cycle;Max_cycle;Signal;HPM_P1;HPM_P2
2023/05/07 00:02:23;;;;;;;2.40;1.10;;;;;;;13.25;100.00;96193.91;5036070;28;20217;-69
2023/05/07 00:04:50;;;;;;;1.70;0.95;;;;;;;13.11;100.00;96181.63;5035934;28;20263;-68
2023/05/07 00:07:16;;;;;;;1.63;1.13;;;;;;;13.14;100.00;96186.50;5035243;28;20249;-68
2023/05/07 00:09:43;;;;;;;0.63;0.63;;;;;;;13.19;100.00;96185.94;5035872;28;20213;-68
2023/05/07 00:12:09;;;;;;;1.85;1.10;;;;;;;13.34;100.00;96183.97;5035639;28;20193;-67
2023/05/07 00:14:36;;;;;;;1.15;0.90;;;;;;;13.25;100.00;96187.78;5035412;28;20214;-68
2023/05/07 00:17:04;;;;;;;1.27;1.02;;;;;;;13.28;100.00;96195.34;5035838;28;20217;-69
2023/05/07 00:19:30;;;;;;;2.13;1.60;;;;;;;13.30;100.00;96201.25;5036387;28;20228;-69
2023/05/07 00:21:58;;;;;;;2.55;0.85;;;;;;;13.29;100.00;96189.03;5043453;28;21361;-68
2023/05/07 00:24:25;;;;;;;1.75;1.35;;;;;;;13.28;100.00;96200.66;5045628;28;20205;-69
2023/05/07 00:26:52;;;;;;;0.88;0.60;;;;;;;13.23;100.00;96195.13;5044231;28;20221;-68
2023/05/07 00:29:19;;;;;;;1.25;1.00;;;;;;;12.94;100.00;96196.13;5042664;28;20572;-69
2023/05/07 00:31:45;;;;;;;1.45;1.00;;;;;;;12.81;100.00;96195.19;5044155;28;21117;-70
2023/05/07 00:34:13;;;;;;;1.15;1.05;;;;;;;13.08;100.00;96192.56;5045406;28;20205;-67
2023/05/07 00:36:39;;;;;;;0.93;0.80;;;;;;;13.22;100.00;96196.13;5045857;28;20228;-70
2023/05/07 00:39:06;;;;;;;1.48;1.17;;;;;;;13.27;100.00;96199.81;5044769;28;20213;-70
2023/05/07 00:41:33;;;;;;;1.42;1.10;;;;;;;13.28;100.00;96182.94;5044802;28;20665;-70
2023/05/07 00:44:02;;;;;;;1.65;1.20;;;;;;;13.42;100.00;96185.44;5043903;28;20201;-70
2023/05/07 00:46:30;;;;;;;1.25;1.10;;;;;;;13.48;100.00;96183.88;5044621;28;20225;-70
2023/05/07 00:48:56;;;;;;;2.45;1.20;;;;;;;13.52;100.00;96175.31;5043390;28;20221;-69
2023/05/07 00:51:27;;;;;;;1.80;0.80;;;;;;;13.35;100.00;96175.84;5043745;28;20197;-68
2023/05/07 00:53:54;;;;;;;2.03;1.05;;;;;;;12.88;100.00;96175.75;5044455;28;20802;-68
2023/05/07 00:56:21;;;;;;;2.15;1.33;;;;;;;12.98;100.00;96172.75;5045472;28;20579;-68
2023/05/07 00:58:48;;;;;;;1.77;1.25;;;;;;;12.66;100.00;96175.13;5043660;28;20201;-69
2023/05/07 01:01:15;;;;;;;1.95;1.45;;;;;;;12.77;100.00;96178.06;5044988;28;20201;-70
2023/05/07 01:03:42;;;;;;;1.27;1.00;;;;;;;12.97;100.00;96168.47;5044421;28;20252;-70
2023/05/07 01:06:12;;;;;;;1.30;0.90;;;;;;;13.07;100.00;96169.78;5044637;28;20587;-70
2023/05/07 01:08:40;;;;;;;2.53;1.42;;;;;;;13.09;100.00;96169.59;5043668;28;20244;-68
2023/05/07 01:11:08;;;;;;;2.28;1.50;;;;;;;13.07;100.00;96169.78;5044769;28;20210;-69
2023/05/07 01:13:35;;;;;;;1.30;1.10;;;;;;;13.01;100.00;96165.25;5044428;28;20205;-71
2023/05/07 01:16:02;;;;;;;1.50;1.08;;;;;;;13.03;100.00;96167.72;5044897;28;20222;-69
2023/05/07 01:18:29;;;;;;;1.77;1.33;;;;;;;13.23;100.00;96166.00;5043581;28;20228;-69
2023/05/07 01:20:58;;;;;;;1.95;1.27;;;;;;;13.36;100.00;96163.44;5044596;28;20214;-71
2023/05/07 01:23:28;;;;;;;1.60;1.10;;;;;;;13.20;100.00;96174.31;5044459;28;20217;-68
2023/05/07 01:25:55;;;;;;;1.42;1.23;;;;;;;12.97;100.00;96173.75;5043843;28;20220;-69
2023/05/07 01:28:22;;;;;;;3.20;1.73;;;;;;;13.16;100.00;96178.38;5043699;28;20705;-68
2023/05/07 01:30:53;;;;;;;2.60;1.40;;;;;;;13.22;100.00;96177.59;5043198;28;20205;-71
2023/05/07 01:33:21;;;;;;;1.67;1.27;;;;;;;13.17;100.00;96170.22;5043463;28;20193;-68
2023/05/07 01:35:50;;;;;;;1.65;1.55;;;;;;;12.95;100.00;96173.16;5043422;28;20257;-71
2023/05/07 01:38:17;;;;;;;2.30;1.60;;;;;;;13.10;100.00;96173.88;5043178;28;20213;-69
2023/05/07 01:40:45;;;;;;;2.03;1.27;;;;;;;13.27;100.00;96170.72;5044171;28;20197;-70
2023/05/07 01:43:11;;;;;;;2.30;1.30;;;;;;;13.23;100.00;96164.19;5044223;28;20217;-70
2023/05/07 01:45:39;;;;;;;2.13;1.35;;;;;;;13.24;100.00;96164.97;5043777;28;20225;-68
2023/05/07 01:48:07;;;;;;;3.60;1.35;;;;;;;13.26;100.00;96155.84;5043215;28;20216;-70
2023/05/07 01:50:34;;;;;;;2.15;1.35;;;;;;;13.22;100.00;96159.09;5043447;28;20205;-67
2023/05/07 01:53:02;;;;;;;5.97;1.35;;;;;;;13.14;100.00;96154.75;5043143;28;20682;-70
2023/05/07 01:55:29;;;;;;;2.13;1.60;;;;;;;12.77;100.00;96156.91;5043460;28;20221;-68
2023/05/07 01:57:57;;;;;;;1.65;1.52;;;;;;;12.78;100.00;96155.91;5042814;28;20232;-67
2023/05/07 02:00:24;;;;;;;1.83;1.58;;;;;;;12.84;100.00;96157.78;5043862;28;20201;-68
2023/05/07 02:02:51;;;;;;;3.30;2.10;;;;;;;12.85;100.00;96159.41;5042849;28;20598;-68
2023/05/07 02:05:18;;;;;;;3.53;1.52;;;;;;;12.92;100.00;96157.69;5043140;28;20201;-71
2023/05/07 02:07:44;;;;;;;1.85;1.30;;;;;;;12.99;100.00;96159.34;5043158;28;20201;-69
2023/05/07 02:10:11;;;;;;;2.03;1.50;;;;;;;13.03;100.00;96157.13;5043389;28;20201;-68
2023/05/07 02:12:37;;;;;;;2.78;1.60;;;;;;;13.05;100.00;96161.22;5043300;28;20467;-68
2023/05/07 02:15:06;;;;;;;2.87;1.73;;;;;;;12.93;100.00;96156.66;5043530;28;20204;-70
2023/05/07 02:17:32;;;;;;;2.15;1.75;;;;;;;12.79;100.00;96163.66;5042606;28;20208;-70
2023/05/07 02:19:59;;;;;;;3.28;2.08;;;;;;;12.68;100.00;96165.16;5042721;28;20212;-70
2023/05/07 02:22:26;;;;;;;3.92;2.10;;;;;;;12.65;100.00;96161.06;5043470;28;20225;-69
2023/05/07 02:24:52;;;;;;;2.40;1.45;;;;;;;12.56;100.00;96159.56;5042817;28;20587;-69
2023/05/07 02:27:19;;;;;;;3.30;1.98;;;;;;;12.59;100.00;96153.09;5040346;28;20221;-69
2023/05/07 02:29:45;;;;;;;2.40;1.70;;;;;;;12.70;100.00;96148.09;5043064;28;20653;-68
2023/05/07 02:32:13;;;;;;;4.65;1.55;;;;;;;12.81;100.00;96152.88;5042917;28;20197;-69
2023/05/07 02:34:39;;;;;;;3.13;1.98;;;;;;;12.70;100.00;96153.38;5042713;28;20209;-68
2023/05/07 02:37:06;;;;;;;3.30;2.05;;;;;;;12.76;100.00;96155.28;5042790;28;20220;-69
2023/05/07 02:39:32;;;;;;;2.23;1.63;;;;;;;12.74;100.00;96151.19;5041890;28;20860;-68
2023/05/07 02:41:59;;;;;;;2.88;1.58;;;;;;;12.72;100.00;96147.94;5042469;28;20201;-69
2023/05/07 02:44:25;;;;;;;1.88;1.40;;;;;;;12.78;100.00;96153.28;5042985;28;20232;-70
2023/05/07 02:46:51;;;;;;;5.55;1.50;;;;;;;12.86;100.00;96150.50;5042703;28;20642;-68
2023/05/07 02:49:19;;;;;;;2.30;1.40;;;;;;;12.75;100.00;96161.56;5041741;28;20677;-69
2023/05/07 02:51:46;;;;;;;2.15;1.27;;;;;;;12.73;100.00;96160.13;5042890;28;20201;-68
2023/05/07 02:54:12;;;;;;;2.83;1.77;;;;;;;12.73;100.00;96160.13;5042458;28;20657;-69
2023/05/07 02:56:38;;;;;;;1.83;1.30;;;;;;;12.61;100.00;96159.81;5042399;28;20241;-67
2023/05/07 02:59:05;;;;;;;1.53;1.20;;;;;;;12.46;100.00;96164.41;5042366;28;20201;-70
2023/05/07 03:01:31;;;;;;;2.92;1.52;;;;;;;12.45;100.00;96165.41;5042153;28;20480;-70
2023/05/07 03:03:58;;;;;;;2.38;1.98;;;;;;;12.36;100.00;96163.88;5042647;28;20351;-70
2023/05/07 03:06:26;;;;;;;1.83;1.33;;;;;;;12.25;100.00;96156.47;5042295;28;20224;-69
2023/05/07 03:08:52;;;;;;;2.10;1.70;;;;;;;12.43;100.00;96164.75;5041158;28;20294;-69
2023/05/07 03:11:19;;;;;;;2.00;1.13;;;;;;;12.48;100.00;96165.00;5042813;28;20201;-69
2023/05/07 03:13:46;;;;;;;1.73;1.40;;;;;;;12.49;100.00;96169.28;5041943;28;20205;-70
2023/05/07 03:16:12;;;;;;;2.40;1.75;;;;;;;12.53;100.00;96165.25;5042452;28;20221;-69
2023/05/07 03:18:38;;;;;;;4.57;1.83;;;;;;;12.50;100.00;96167.44;5041484;28;20204;-69
2023/05/07 03:21:05;;;;;;;2.10;1.90;;;;;;;12.51;100.00;96172.56;5041885;28;20228;-69
2023/05/07 03:23:33;;;;;;;2.15;1.45;;;;;;;12.61;100.00;96167.75;5042059;28;20518;-69
2023/05/07 03:25:59;;;;;;;2.45;1.42;;;;;;;12.36;100.00;96166.53;5042263;28;20221;-68
2023/05/07 03:28:26;;;;;;;2.07;1.53;;;;;;;12.26;100.00;96167.84;5041756;28;20203;-69
2023/05/07 03:30:52;;;;;;;3.93;1.93;;;;;;;12.11;100.00;96169.72;5041585;28;20287;-68
2023/05/07 03:33:18;;;;;;;4.57;1.38;;;;;;;12.24;100.00;96169.84;5041989;28;20201;-68
2023/05/07 03:35:45;;;;;;;2.67;1.42;;;;;;;12.38;100.00;96171.63;5041716;28;20221;-69
2023/05/07 03:38:12;;;;;;;4.20;2.37;;;;;;;11.97;100.00;96177.72;5041364;28;20197;-68
2023/05/07 03:40:39;;;;;;;2.45;1.33;;;;;;;12.12;100.00;96181.09;5041820;28;20216;-68
2023/05/07 03:43:06;;;;;;;3.30;1.57;;;;;;;12.15;100.00;96180.75;5042453;28;20872;-70
2023/05/07 03:45:32;;;;;;;2.77;2.10;;;;;;;12.20;100.00;96187.91;5042369;28;20225;-68
2023/05/07 03:47:59;;;;;;;1.05;0.95;;;;;;;12.27;100.00;96196.72;5041658;28;20263;-70
2023/05/07 03:50:25;;;;;;;3.95;1.20;;;;;;;12.29;100.00;96189.41;5041668;28;20209;-67
2023/05/07 03:52:52;;;;;;;1.70;1.60;;;;;;;12.25;100.00;96193.44;5042210;28;20259;-70
2023/05/07 03:55:18;;;;;;;3.83;1.67;;;;;;;11.97;100.00;96183.00;5043991;28;20205;-71
2023/05/07 03:57:46;;;;;;;1.93;1.70;;;;;;;12.04;100.00;96191.78;5044923;28;20697;-70
2023/05/07 04:00:14;;;;;;;2.07;1.50;;;;;;;12.00;100.00;96182.63;5046052;28;20730;-71
2023/05/07 04:02:40;;;;;;;2.53;1.13;;;;;;;11.95;100.00;96188.47;5046754;28;20205;-70
2023/05/07 04:05:07;;;;;;;1.83;1.20;;;;;;;11.93;100.00;96187.03;5045930;28;20201;-68
2023/05/07 04:07:34;;;;;;;1.50;1.03;;;;;;;11.91;100.00;96183.72;5046081;28;20209;-68
2023/05/07 04:10:00;;;;;;;4.67;1.50;;;;;;;11.95;100.00;96179.72;5046502;28;20205;-68
2023/05/07 04:12:27;;;;;;;3.17;1.58;;;;;;;11.85;100.00;96180.03;5046611;28;20204;-69
2023/05/07 04:14:54;;;;;;;1.57;1.13;;;;;;;11.94;100.00;96175.44;5046334;28;20231;-68
2023/05/07 04:17:21;;;;;;;2.27;1.60;;;;;;;11.71;100.00;96172.13;5045762;28;20295;-68
2023/05/07 04:19:47;;;;;;;2.63;1.70;;;;;;;11.77;100.00;96177.50;5045321;28;20634;-69
2023/05/07 04:22:14;;;;;;;1.97;1.10;;;;;;;11.76;100.00;96169.75;5046401;28;20737;-67
2023/05/07 04:24:40;;;;;;;1.93;1.30;;;;;;;11.87;100.00;96169.28;5045637;28;20644;-69
2023/05/07 04:27:07;;;;;;;1.97;1.30;;;;;;;11.89;100.00;96176.00;5045129;28;20495;-70
2023/05/07 04:29:33;;;;;;;4.20;1.87;;;;;;;11.96;100.00;96170.78;5044826;28;20394;-69
2023/05/07 04:32:01;;;;;;;2.08;1.20;;;;;;;12.14;100.00;96179.91;5044838;28;20202;-68
2023/05/07 04:34:27;;;;;;;2.63;1.53;;;;;;;12.16;100.00;96187.69;5044978;28;20263;-69
2023/05/07 04:36:54;;;;;;;3.57;1.77;;;;;;;12.23;100.00;96190.19;5044899;28;20274;-69
2023/05/07 04:39:20;;;;;;;5.30;1.60;;;;;;;12.09;100.00;96189.41;5044370;28;20240;-70
2023/05/07 04:41:47;;;;;;;4.07;1.77;;;;;;;12.29;100.00;96191.25;5044889;28;20615;-69
2023/05/07 04:44:13;;;;;;;2.07;1.60;;;;;;;12.36;100.00;96187.66;5044923;28;20221;-70
2023/05/07 04:46:40;;;;;;;2.90;1.67;;;;;;;12.32;100.00;96180.28;5045820;28;20221;-68
2023/05/07 04:49:07;;;;;;;1.73;1.40;;;;;;;12.22;100.00;96180.63;5044975;28;20209;-70
2023/05/07 04:51:34;;;;;;;1.50;1.40;;;;;;;12.13;100.00;96178.31;5045655;28;20208;-69
2023/05/07 04:54:00;;;;;;;2.03;1.43;;;;;;;12.22;100.00;96177.97;5045627;28;20255;-69
2023/05/07 04:56:28;;;;;;;2.77;2.00;;;;;;;12.35;100.00;96170.19;5044308;28;20636;-68
2023/05/07 04:58:55;;;;;;;2.97;2.20;;;;;;;12.31;100.00;96174.22;5045072;28;20201;-70
2023/05/07 05:01:21;;;;;;;4.18;2.25;;;;;;;12.28;100.00;96182.53;5045253;28;20201;-68
2023/05/07 05:03:48;;;;;;;2.87;1.90;;;;;;;12.36;100.00;96179.75;5045271;28;20504;-70
2023/05/07 05:06:15;;;;;;;9.60;1.57;;;;;;;12.60;100.00;96192.56;5043810;28;20225;-70
2023/05/07 05:08:42;;;;;;;3.17;2.17;;;;;;;12.70;100.00;96192.25;5044368;28;20205;-70
2023/05/07 05:11:08;;;;;;;3.42;1.90;;;;;;;12.80;100.00;96196.19;5044381;28;20637;-68
2023/05/07 05:13:35;;;;;;;2.70;1.97;;;;;;;12.86;100.00;96196.28;5044810;28;20680;-69
2023/05/07 05:16:01;;;;;;;5.03;1.98;;;;;;;12.78;100.00;96190.28;5044560;28;20229;-69
2023/05/07 05:18:27;;;;;;;3.63;1.70;;;;;;;12.99;100.00;96188.44;5043801;28;20213;-68
2023/05/07 05:20:54;;;;;;;3.72;1.98;;;;;;;13.03;100.00;96194.16;5044624;28;20201;-70
2023/05/07 05:23:22;;;;;;;2.97;2.05;;;;;;;13.22;100.00;96198.78;5044119;28;20286;-70
2023/05/07 05:25:48;;;;;;;3.33;1.98;;;;;;;13.13;100.00;96202.59;5044104;28;20278;-69
2023/05/07 05:28:15;;;;;;;3.33;2.27;;;;;;;13.28;100.00;96203.31;5043552;28;20674;-70
2023/05/07 05:30:41;;;;;;;9.00;1.77;;;;;;;13.43;100.00;96207.47;5043789;28;20205;-69
2023/05/07 05:33:08;;;;;;;2.72;1.80;;;;;;;13.64;100.00;96204.72;5044069;28;20206;-69
2023/05/07 05:35:35;;;;;;;3.47;2.17;;;;;;;13.68;100.00;96205.94;5044563;28;20291;-70
2023/05/07 05:38:01;;;;;;;2.78;1.92;;;;;;;13.87;100.00;96200.75;5042938;28;20205;-69
2023/05/07 05:40:29;;;;;;;2.97;1.75;;;;;;;14.08;100.00;96200.66;5043787;28;20221;-69
2023/05/07 05:42:56;;;;;;;2.97;1.88;;;;;;;14.07;100.00;96199.00;5044410;28;20308;-69
2023/05/07 05:45:22;;;;;;;2.90;1.80;;;;;;;14.22;100.00;96215.59;5044390;28;20232;-68
2023/05/07 05:47:48;;;;;;;2.08;1.45;;;;;;;14.32;100.00;96206.22;5043629;28;20275;-68
2023/05/07 05:50:15;;;;;;;3.22;2.10;;;;;;;14.22;100.00;96212.94;5044036;28;20205;-70
2023/05/07 05:52:41;;;;;;;2.88;2.03;;;;;;;14.41;100.00;96207.69;5043677;28;20213;-69
2023/05/07 05:55:09;;;;;;;5.53;2.42;;;;;;;14.59;100.00;96217.69;5043564;28;20194;-69
2023/05/07 05:57:37;;;;;;;3.55;2.08;;;;;;;14.64;100.00;96216.88;5042795;28;20459;-69
2023/05/07 06:00:04;;;;;;;2.58;1.65;;;;;;;14.70;100.00;96216.09;5043511;28;20209;-67
2023/05/07 06:02:31;;;;;;;5.00;3.40;;;;;;;14.81;100.00;96212.81;5043224;28;20472;-68
2023/05/07 06:04:57;;;;;;;4.53;2.40;;;;;;;15.03;100.00;96216.94;5043524;28;20221;-70
2023/05/07 06:07:24;;;;;;;6.47;2.00;;;;;;;15.10;100.00;96223.03;5042180;28;20275;-69
2023/05/07 06:09:50;;;;;;;7.75;2.30;;;;;;;15.20;100.00;96218.13;5043007;28;20290;-67
2023/05/07 06:12:17;;;;;;;3.10;1.67;;;;;;;15.30;100.00;96219.38;5043904;28;20654;-70
2023/05/07 06:14:45;;;;;;;2.15;1.85;;;;;;;15.54;100.00;96220.56;5042968;28;20429;-70
2023/05/07 06:17:11;;;;;;;3.40;1.90;;;;;;;15.60;100.00;96214.41;5042721;28;20229;-69
2023/05/07 06:19:37;;;;;;;2.08;1.38;;;;;;;15.67;100.00;96212.56;5043001;28;20236;-71
2023/05/07 06:22:04;;;;;;;3.78;1.98;;;;;;;15.68;100.00;96212.38;5043574;28;20201;-70
2023/05/07 06:24:30;;;;;;;4.50;2.33;;;;;;;15.75;100.00;96212.34;5042515;28;20275;-69
2023/05/07 06:26:58;;;;;;;2.78;1.70;;;;;;;15.81;100.00;96217.63;5042786;28;20639;-68
2023/05/07 06:29:25;;;;;;;2.17;1.88;;;;;;;15.93;100.00;96211.44;5042315;28;20666;-70
2023/05/07 06:31:53;;;;;;;6.28;2.38;;;;;;;16.12;100.00;96226.50;5042798;28;20735;-72
2023/05/07 06:34:19;;;;;;;1.58;1.35;;;;;;;16.19;99.48;96221.97;5043406;28;20255;-70
2023/05/07 06:36:46;;;;;;;5.63;2.15;;;;;;;16.21;100.00;96225.22;5042738;28;20638;-69
2023/05/07 06:39:12;;;;;;;3.20;1.73;;;;;;;16.22;98.87;96226.88;5042315;28;20256;-70
2023/05/07 06:41:39;;;;;;;2.50;2.00;;;;;;;16.47;99.87;96234.97;5043024;28;20267;-69
2023/05/07 06:44:05;;;;;;;4.03;2.55;;;;;;;16.41;100.00;96233.13;5042536;28;20221;-70
2023/05/07 06:46:32;;;;;;;6.57;2.78;;;;;;;16.14;100.00;96229.78;5042428;28;20225;-70
2023/05/07 06:49:00;;;;;;;2.92;2.22;;;;;;;16.37;100.00;96232.78;5042041;28;20810;-70
2023/05/07 06:51:26;;;;;;;3.30;2.15;;;;;;;16.53;99.31;96241.06;5042776;28;20612;-68
2023/05/07 06:53:53;;;;;;;3.20;2.05;;;;;;;16.58;100.00;96232.44;5042182;28;20238;-68
2023/05/07 06:56:19;;;;;;;3.85;1.98;;;;;;;16.55;100.00;96233.69;5042649;28;20224;-70
2023/05/07 06:58:46;;;;;;;4.43;2.55;;;;;;;16.76;100.00;96236.03;5041484;28;20900;-70
2023/05/07 07:01:12;;;;;;;3.92;2.55;;;;;;;16.61;100.00;96242.63;5042667;28;20264;-69
2023/05/07 07:03:38;;;;;;;2.20;1.73;;;;;;;16.77;100.00;96236.81;5042460;28;20209;-70
2023/05/07 07:06:06;;;;;;;3.40;1.58;;;;;;;16.93;100.00;96237.13;5042423;28;20295;-68
2023/05/07 07:08:34;;;;;;;3.03;1.98;;;;;;;17.07;99.62;96229.84;5042334;28;20662;-70
2023/05/07 07:11:00;;;;;;;5.30;1.73;;;;;;;17.12;98.23;96230.84;5042418;28;20201;-70
2023/05/07 07:13:27;;;;;;;4.57;2.15;;;;;;;17.22;97.11;96231.97;5042511;28;20201;-69
2023/05/07 07:15:53;;;;;;;5.25;2.88;;;;;;;17.26;98.18;96227.03;5042331;28;20217;-69
2023/05/07 07:18:20;;;;;;;4.35;2.17;;;;;;;17.41;97.51;96230.19;5041786;28;20197;-69
2023/05/07 07:20:46;;;;;;;3.63;1.95;;;;;;;17.49;96.59;96233.41;5041825;28;20209;-69
2023/05/07 07:23:14;;;;;;;3.38;2.20;;;;;;;17.65;97.23;96219.50;5042341;28;20274;-69
2023/05/07 07:25:41;;;;;;;4.03;1.67;;;;;;;17.91;98.51;96221.91;5041627;28;20760;-69
2023/05/07 07:28:07;;;;;;;2.67;2.13;;;;;;;17.71;96.47;96226.63;5041607;28;20610;-69
2023/05/07 07:30:34;;;;;;;3.20;1.85;;;;;;;17.81;95.16;96232.25;5044709;28;20259;-69
2023/05/07 07:33:02;;;;;;;4.03;2.22;;;;;;;17.71;94.16;96231.94;5046550;28;20262;-70
2023/05/07 07:35:28;;;;;;;3.97;2.22;;;;;;;17.99;94.24;96224.25;5045950;28;20294;-69
2023/05/07 07:37:55;;;;;;;5.40;2.20;;;;;;;18.15;91.33;96226.31;5045940;28;20217;-69
2023/05/07 07:40:22;;;;;;;4.35;2.30;;;;;;;18.60;91.62;96229.25;5046267;28;20642;-69
2023/05/07 07:42:49;;;;;;;4.38;2.50;;;;;;;18.59;90.22;96235.63;5046364;28;20611;-69
2023/05/07 07:45:15;;;;;;;2.88;2.10;;;;;;;18.50;91.30;96234.31;5046138;28;20263;-68
2023/05/07 07:47:42;;;;;;;3.22;1.90;;;;;;;18.63;92.57;96239.47;5045478;28;20222;-69
2023/05/07 07:50:09;;;;;;;3.28;2.17;;;;;;;18.86;94.84;96233.41;5045620;28;20201;-69
2023/05/07 07:52:36;;;;;;;4.10;2.15;;;;;;;19.14;96.74;96231.75;5046093;28;20577;-71
2023/05/07 07:55:03;;;;;;;5.07;1.90;;;;;;;19.19;95.31;96235.34;5046448;28;20193;-69
2023/05/07 07:57:31;;;;;;;5.93;2.15;;;;;;;19.42;90.49;96231.91;5045511;28;20201;-69
2023/05/07 07:59:57;;;;;;;3.83;2.10;;;;;;;19.41;86.17;96230.28;5045429;28;20201;-69
2023/05/07 08:02:24;;;;;;;3.35;2.05;;;;;;;19.47;87.21;96234.72;5045779;28;20259;-68
2023/05/07 08:04:50;;;;;;;4.45;2.50;;;;;;;19.47;90.54;96232.03;5045429;28;20274;-69
2023/05/07 08:07:18;;;;;;;3.40;2.08;;;;;;;19.44;88.81;96221.81;5044793;28;20225;-69
2023/05/07 08:09:44;;;;;;;2.03;1.45;;;;;;;19.52;90.53;96229.47;5045517;28;20748;-69
2023/05/07 08:12:11;;;;;;;4.03;1.80;;;;;;;19.57;87.12;96226.94;5045538;28;20259;-69
2023/05/07 08:14:39;;;;;;;3.38;2.15;;;;;;;19.99;89.32;96218.56;5045503;28;20440;-70
2023/05/07 08:17:05;;;;;;;3.10;1.90;;;;;;;20.23;91.26;96224.41;5045930;28;20275;-70
2023/05/07 08:19:32;;;;;;;3.15;1.92;;;;;;;20.14;86.46;96230.38;5044613;28;20259;-69
2023/05/07 08:21:58;;;;;;;4.88;2.38;;;;;;;20.18;82.40;96226.19;5045257;28;20235;-70
2023/05/07 08:24:25;;;;;;;3.92;1.77;;;;;;;20.27;89.63;96228.25;5045534;28;20272;-70
2023/05/07 08:26:51;;;;;;;4.05;2.60;;;;;;;20.53;84.52;96229.56;5045115;28;20240;-70
2023/05/07 08:29:17;;;;;;;4.07;2.40;;;;;;;20.56;85.46;96223.75;5044533;28;20665;-69
2023/05/07 08:31:45;;;;;;;3.25;2.10;;;;;;;20.70;87.22;96231.25;5045415;28;20201;-69
2023/05/07 08:34:12;;;;;;;3.33;2.05;;;;;;;20.61;84.24;96232.69;5045279;28;20197;-69
2023/05/07 08:36:38;;;;;;;2.15;1.65;;;;;;;20.58;81.76;96227.00;5045255;28;20275;-70
2023/05/07 08:39:05;;;;;;;3.00;2.10;;;;;;;20.36;82.41;96229.50;5044237;28;20677;-69
2023/05/07 08:41:32;;;;;;;3.45;1.60;;;;;;;20.59;85.48;96236.66;5044679;28;20267;-69
2023/05/07 08:43:59;;;;;;;4.05;1.88;;;;;;;20.43;85.30;96224.00;5045119;28;20205;-70
2023/05/07 08:46:27;;;;;;;1.95;1.63;;;;;;;20.65;84.74;96228.47;5044707;28;20221;-69
2023/05/07 08:48:54;;;;;;;4.07;2.00;;;;;;;20.77;80.48;96231.16;5043993;28;20205;-70
2023/05/07 08:51:22;;;;;;;3.03;2.13;;;;;;;20.79;81.35;96221.81;5044960;28;20200;-68
2023/05/07 08:53:50;;;;;;;4.55;2.08;;;;;;;20.66;83.24;96227.44;5044778;28;20557;-68
2023/05/07 08:56:17;;;;;;;3.65;2.05;;;;;;;20.87;86.04;96222.25;5044470;28;20753;-70
2023/05/07 08:58:44;;;;;;;5.90;2.80;;;;;;;21.07;79.45;96227.94;5044498;28;20246;-69
2023/05/07 09:01:13;;;;;;;3.00;1.70;;;;;;;21.18;81.55;96223.56;5044323;28;20209;-72
2023/05/07 09:03:41;;;;;;;3.35;2.03;;;;;;;20.91;82.80;96225.25;5043925;28;20885;-71
2023/05/07 09:06:08;;;;;;;2.72;1.70;;;;;;;21.40;82.54;96225.31;5044782;28;20281;-68
2023/05/07 09:08:36;;;;;;;4.20;2.40;;;;;;;20.98;82.50;96229.41;5043866;28;20263;-70
2023/05/07 09:11:02;;;;;;;3.55;2.00;;;;;;;21.04;81.92;96220.41;5044123;28;20255;-70
2023/05/07 09:13:30;;;;;;;3.90;2.00;;;;;;;21.27;79.96;96222.13;5044726;28;20609;-69
2023/05/07 09:15:56;;;;;;;3.45;2.22;;;;;;;21.39;83.19;96218.31;5044310;28;20217;-69
2023/05/07 09:18:25;;;;;;;3.67;2.10;;;;;;;21.45;79.31;96220.03;5043726;28;20678;-69
2023/05/07 09:20:51;;;;;;;4.22;2.10;;;;;;;21.56;84.48;96211.91;5044169;28;20746;-71
2023/05/07 09:23:19;;;;;;;4.80;2.03;;;;;;;21.82;77.72;96221.16;5044591;28;20201;-71
2023/05/07 09:25:46;;;;;;;3.08;2.15;;;;;;;21.84;76.05;96219.03;5043632;28;20237;-68
2023/05/07 09:28:12;;;;;;;2.85;1.90;;;;;;;22.00;76.48;96212.81;5043325;28;20209;-71
2023/05/07 09:30:38;;;;;;;4.32;2.28;;;;;;;22.17;76.38;96220.59;5044418;28;20640;-71
2023/05/07 09:33:05;;;;;;;3.22;1.90;;;;;;;22.21;76.33;96220.88;5043900;28;20677;-72
2023/05/07 09:35:31;;;;;;;4.18;2.20;;;;;;;22.29;73.56;96223.19;5044170;28;20249;-69
2023/05/07 09:37:59;;;;;;;3.90;2.10;;;;;;;22.15;78.50;96220.00;5043273;28;20205;-70
2023/05/07 09:40:28;;;;;;;4.53;2.47;;;;;;;21.93;77.88;96225.59;5043637;28;20213;-72
2023/05/07 09:42:55;;;;;;;5.32;2.97;;;;;;;21.81;77.58;96233.75;5044176;28;20874;-69
2023/05/07 09:45:26;;;;;;;3.63;2.35;;;;;;;21.75;78.07;96234.72;5043762;28;20711;-69
2023/05/07 09:47:55;;;;;;;5.38;2.28;;;;;;;21.66;76.07;96235.38;5043164;28;20629;-70
2023/05/07 09:50:26;;;;;;;4.38;2.22;;;;;;;21.68;77.55;96227.94;5043601;28;20206;-70
2023/05/07 09:52:53;;;;;;;4.65;2.40;;;;;;;21.83;76.66;96234.31;5042613;28;20677;-70
2023/05/07 09:55:21;;;;;;;3.17;2.20;;;;;;;22.28;73.09;96222.34;5044089;28;20540;-70
2023/05/07 09:57:50;;;;;;;3.38;1.83;;;;;;;22.65;74.22;96217.97;5043213;28;20271;-69
2023/05/07 10:00:19;;;;;;;4.20;2.28;;;;;;;23.21;75.33;96217.50;5042936;28;20255;-70
2023/05/07 10:02:49;;;;;;;2.35;1.65;;;;;;;23.27;77.30;96217.28;5043524;28;20201;-71
2023/05/07 10:05:15;;;;;;;3.25;2.13;;;;;;;22.98;72.17;96218.59;5043634;28;20224;-71
2023/05/07 10:07:42;;;;;;;3.60;2.17;;;;;;;22.80;70.91;96220.81;5042419;28;20220;-68
2023/05/07 10:10:09;;;;;;;3.83;1.88;;;;;;;22.44;77.47;96213.44;5043754;28;20205;-71
2023/05/07 10:12:38;;;;;;;3.85;2.10;;;;;;;22.35;78.79;96214.94;5043063;28;20205;-69
2023/05/07 10:15:08;;;;;;;3.63;2.35;;;;;;;22.87;75.23;96213.38;5043083;28;20371;-71
2023/05/07 10:17:36;;;;;;;3.08;2.28;;;;;;;23.01;76.61;96212.72;5042789;28;20201;-71
2023/05/07 10:20:03;;;;;;;3.65;2.20;;;;;;;23.12;76.11;96208.28;5042730;28;20213;-69
2023/05/07 10:22:38;;;;;;;3.47;2.38;;;;;;;23.27;70.79;96211.09;5043210;28;20290;-69
2023/05/07 10:25:07;;;;;;;4.60;2.67;;;;;;;23.51;73.71;96214.00;5042804;28;20711;-70
2023/05/07 10:27:34;;;;;;;3.92;2.47;;;;;;;23.06;72.11;96211.97;5041951;28;20243;-71
2023/05/07 10:30:13;;;;;;;3.10;2.10;;;;;;;22.89;73.80;96213.94;5043154;28;20193;-71
2023/05/07 10:32:41;;;;;;;5.25;2.28;;;;;;;22.90;73.68;96213.69;5042720;28;20669;-70
2023/05/07 10:35:13;;;;;;;5.75;2.53;;;;;;;22.73;70.93;96214.81;5042786;28;20259;-71
2023/05/07 10:37:39;;;;;;;2.80;1.75;;;;;;;23.02;71.20;96211.66;5042399;28;20205;-68
2023/05/07 10:40:07;;;;;;;4.47;2.20;;;;;;;23.16;79.76;96214.75;5042531;28;20205;-70
2023/05/07 10:42:33;;;;;;;3.70;2.28;;;;;;;23.20;70.01;96213.19;5042689;28;20204;-70
2023/05/07 10:45:15;;;;;;;4.60;2.72;;;;;;;23.25;75.70;96205.97;5042825;28;20221;-71
2023/05/07 10:48:09;;;;;;;4.53;2.45;;;;;;;23.27;74.15;96211.91;5042372;28;20241;-69
2023/05/07 10:50:36;;;;;;;3.17;2.05;;;;;;;23.07;72.81;96210.91;5042568;28;20205;-70
2023/05/07 10:53:32;;;;;;;3.72;2.22;;;;;;;23.16;74.98;96204.00;5042664;28;20247;-68
2023/05/07 10:56:26;;;;;;;5.03;2.63;;;;;;;23.01;69.93;96201.19;5042191;28;20216;-71
2023/05/07 10:58:53;;;;;;;4.50;2.80;;;;;;;23.18;73.54;96204.53;5039736;28;20292;-71
2023/05/07 11:01:55;;;;;;;4.35;2.25;;;;;;;23.37;71.52;96199.34;5042150;28;20197;-68
2023/05/07 11:04:26;;;;;;;2.80;1.70;;;;;;;23.48;69.52;96200.25;5042602;28;20199;-71
2023/05/07 11:07:25;;;;;;;3.35;1.83;;;;;;;23.68;73.47;96195.03;5042389;28;20264;-71
2023/05/07 11:10:00;;;;;;;2.25;1.60;;;;;;;23.97;67.76;96183.66;5008034;28;20768;-70
2023/05/07 11:12:49;;;;;;;2.30;1.40;;;;;;;24.18;63.96;96193.44;5042131;28;20232;-69
2023/05/07 11:15:33;;;;;;;3.38;1.73;;;;;;;23.79;63.99;96192.16;5042521;28;20258;-70
2023/05/07 11:18:03;;;;;;;2.08;1.40;;;;;;;23.88;61.48;96187.91;5041971;28;20472;-70
2023/05/07 11:20:48;;;;;;;3.88;1.38;;;;;;;24.20;63.29;96177.84;5042054;28;20300;-70
2023/05/07 11:24:07;;;;;;;2.25;1.40;;;;;;;23.99;58.81;96185.03;5042532;28;20242;-69
2023/05/07 11:26:44;;;;;;;1.23;1.00;;;;;;;23.89;58.11;96188.72;5042388;28;20233;-70
2023/05/07 11:29:15;;;;;;;2.13;1.65;;;;;;;23.87;58.33;96191.66;5041829;28;20197;-69
2023/05/07 11:31:42;;;;;;;1.25;1.00;;;;;;;24.16;61.36;96179.41;5042099;28;20288;-70
2023/05/07 11:34:11;;;;;;;1.85;1.00;;;;;;;24.30;57.72;96180.56;5041399;28;20698;-70